sensor_id;sensor_type;location;lat;lon;timestamp;P1;durP1;ratioP1;P2;durP2;ratioP2
18532;SDS011;9396;51.510;11.934;2023-05-07T00:00:50;12.27;;;8.57;;
18532;SDS011;9396;51.510;11.934;2023-05-07T00:03:17;12.07;;;9.70;;
18532;SDS011;9396;51.510;11.934;2023-05-07T00:05:44;13.53;;;9.47;;
18532;SDS011;9396;51.510;11.934;2023-05-07T00:08:11;12.10;;;9.70;;
18532;SDS011;9396;51.510;11.934;2023-05-07T00:10:38;14.67;;;9.97;;
18532;SDS011;9396;51.510;11.934;2023-05-07T00:13:06;12.97;;;9.70;;
18532;SDS011;9396;51.510;11.934;2023-05-07T00:15:33;15.07;;;10.03;;
18532;SDS011;9396;51.510;11.934;2023-05-07T00:17:59;18.07;;;11.13;;
18532;SDS011;9396;51.510;11.934;2023-05-07T00:20:26;14.67;;;10.60;;
18532;SDS011;9396;51.510;11.934;2023-05-07T00:22:52;14.33;;;11.10;;
18532;SDS011;9396;51.510;11.934;2023-05-07T00:25:19;14.87;;;11.03;;
18532;SDS011;9396;51.510;11.934;2023-05-07T00:27:46;14.87;;;10.30;;
18532;SDS011;9396;51.510;11.934;2023-05-07T00:30:14;15.07;;;9.50;;
18532;SDS011;9396;51.510;11.934;2023-05-07T00:32:41;13.37;;;9.80;;
18532;SDS011;9396;51.510;11.934;2023-05-07T00:35:10;11.90;;;9.33;;
18532;SDS011;9396;51.510;11.934;2023-05-07T00:37:37;14.20;;;9.30;;
18532;SDS011;9396;51.510;11.934;2023-05-07T00:40:04;10.20;;;7.93;;
18532;SDS011;9396;51.510;11.934;2023-05-07T00:42:32;10.37;;;7.50;;
18532;SDS011;9396;51.510;11.934;2023-05-07T00:44:59;9.87;;;7.83;;
18532;SDS011;9396;51.510;11.934;2023-05-07T00:47:27;9.93;;;7.33;;
18532;SDS011;9396;51.510;11.934;2023-05-07T00:49:54;9.10;;;7.73;;
18532;SDS011;9396;51.510;11.934;2023-05-07T00:52:20;9.00;;;7.20;;
18532;SDS011;9396;51.510;11.934;2023-05-07T00:54:51;10.40;;;7.60;;
18532;SDS011;9396;51.510;11.934;2023-05-07T00:57:18;11.33;;;7.50;;
18532;SDS011;9396;51.510;11.934;2023-05-07T00:59:46;14.00;;;8.20;;
18532;SDS011;9396;51.510;11.934;2023-05-07T01:02:13;11.60;;;8.23;;
18532;SDS011;9396;51.510;11.934;2023-05-07T01:04:41;10.67;;;8.23;;
18532;SDS011;9396;51.510;11.934;2023-05-07T01:07:08;10.03;;;8.23;;
18532;SDS011;9396;51.510;11.934;2023-05-07T01:09:35;13.00;;;7.83;;
18532;SDS011;9396;51.510;11.934;2023-05-07T01:12:03;10.03;;;7.47;;
18532;SDS011;9396;51.510;11.934;2023-05-07T01:14:30;8.80;;;7.47;;
18532;SDS011;9396;51.510;11.934;2023-05-07T01:16:58;9.23;;;7.43;;
18532;SDS011;9396;51.510;11.934;2023-05-07T01:19:25;11.50;;;8.33;;
18532;SDS011;9396;51.510;11.934;2023-05-07T01:21:53;10.17;;;8.03;;
18532;SDS011;9396;51.510;11.934;2023-05-07T01:24:28;10.70;;;7.80;;
18532;SDS011;9396;51.510;11.934;2023-05-07T01:26:56;10.50;;;8.80;;
18532;SDS011;9396;51.510;11.934;2023-05-07T01:29:22;9.17;;;7.80;;
18532;SDS011;9396;51.510;11.934;2023-05-07T01:31:49;10.63;;;8.40;;
18532;SDS011;9396;51.510;11.934;2023-05-07T01:34:18;11.20;;;8.63;;
18532;SDS011;9396;51.510;11.934;2023-05-07T01:36:46;10.73;;;8.17;;
18532;SDS011;9396;51.510;11.934;2023-05-07T01:39:14;10.80;;;7.93;;
18532;SDS011;9396;51.510;11.934;2023-05-07T01:41:43;10.07;;;7.83;;
18532;SDS011;9396;51.510;11.934;2023-05-07T01:46:39;13.60;;;8.50;;
18532;SDS011;9396;51.510;11.934;2023-05-07T01:49:06;12.60;;;8.17;;
18532;SDS011;9396;51.510;11.934;2023-05-07T01:51:33;9.87;;;7.60;;
18532;SDS011;9396;51.510;11.934;2023-05-07T01:54:00;12.53;;;8.50;;
18532;SDS011;9396;51.510;11.934;2023-05-07T01:56:27;10.97;;;8.30;;
18532;SDS011;9396;51.510;11.934;2023-05-07T01:58:55;12.30;;;8.90;;
18532;SDS011;9396;51.510;11.934;2023-05-07T02:01:21;11.67;;;8.47;;
18532;SDS011;9396;51.510;11.934;2023-05-07T02:03:48;11.10;;;8.50;;
18532;SDS011;9396;51.510;11.934;2023-05-07T02:06:15;9.90;;;7.87;;
18532;SDS011;9396;51.510;11.934;2023-05-07T02:08:41;9.50;;;8.10;;
18532;SDS011;9396;51.510;11.934;2023-05-07T02:11:08;10.67;;;7.87;;
18532;SDS011;9396;51.510;11.934;2023-05-07T02:13:35;9.43;;;7.67;;
18532;SDS011;9396;51.510;11.934;2023-05-07T02:16:04;9.83;;;8.10;;
18532;SDS011;9396;51.510;11.934;2023-05-07T02:18:31;10.23;;;7.50;;
18532;SDS011;9396;51.510;11.934;2023-05-07T02:20:58;9.47;;;7.33;;
18532;SDS011;9396;51.510;11.934;2023-05-07T02:23:25;8.37;;;7.10;;
18532;SDS011;9396;51.510;11.934;2023-05-07T02:25:51;9.37;;;7.50;;
18532;SDS011;9396;51.510;11.934;2023-05-07T02:28:18;8.40;;;6.80;;
18532;SDS011;9396;51.510;11.934;2023-05-07T02:30:44;10.33;;;6.73;;
18532;SDS011;9396;51.510;11.934;2023-05-07T02:33:12;8.93;;;7.07;;
18532;SDS011;9396;51.510;11.934;2023-05-07T02:35:39;8.87;;;6.83;;
18532;SDS011;9396;51.510;11.934;2023-05-07T02:38:06;9.03;;;7.27;;
18532;SDS011;9396;51.510;11.934;2023-05-07T02:40:32;8.43;;;6.80;;
18532;SDS011;9396;51.510;11.934;2023-05-07T02:43:03;8.97;;;7.20;;
18532;SDS011;9396;51.510;11.934;2023-05-07T02:45:30;10.43;;;6.80;;
18532;SDS011;9396;51.510;11.934;2023-05-07T02:47:57;9.53;;;7.33;;
18532;SDS011;9396;51.510;11.934;2023-05-07T02:50:25;9.10;;;6.80;;
18532;SDS011;9396;51.510;11.934;2023-05-07T02:52:52;9.43;;;6.40;;
18532;SDS011;9396;51.510;11.934;2023-05-07T02:55:18;9.27;;;7.13;;
18532;SDS011;9396;51.510;11.934;2023-05-07T02:57:45;8.47;;;7.37;;
18532;SDS011;9396;51.510;11.934;2023-05-07T03:00:13;8.03;;;6.67;;
18532;SDS011;9396;51.510;11.934;2023-05-07T03:02:41;8.97;;;6.97;;
18532;SDS011;9396;51.510;11.934;2023-05-07T03:05:07;9.23;;;7.37;;
18532;SDS011;9396;51.510;11.934;2023-05-07T03:07:36;8.00;;;7.20;;
18532;SDS011;9396;51.510;11.934;2023-05-07T03:10:02;9.10;;;7.33;;
18532;SDS011;9396;51.510;11.934;2023-05-07T03:12:30;8.50;;;7.57;;
18532;SDS011;9396;51.510;11.934;2023-05-07T03:14:57;9.80;;;7.87;;
18532;SDS011;9396;51.510;11.934;2023-05-07T03:17:24;9.33;;;8.13;;
18532;SDS011;9396;51.510;11.934;2023-05-07T03:19:50;11.50;;;8.63;;
18532;SDS011;9396;51.510;11.934;2023-05-07T03:22:17;10.90;;;8.47;;
18532;SDS011;9396;51.510;11.934;2023-05-07T03:24:45;9.20;;;8.20;;
18532;SDS011;9396;51.510;11.934;2023-05-07T03:27:11;10.60;;;8.33;;
18532;SDS011;9396;51.510;11.934;2023-05-07T03:29:38;12.10;;;9.27;;
18532;SDS011;9396;51.510;11.934;2023-05-07T03:32:05;10.30;;;9.20;;
18532;SDS011;9396;51.510;11.934;2023-05-07T03:34:31;9.87;;;8.57;;
18532;SDS011;9396;51.510;11.934;2023-05-07T03:36:58;11.57;;;8.83;;
18532;SDS011;9396;51.510;11.934;2023-05-07T03:39:25;11.47;;;9.80;;
18532;SDS011;9396;51.510;11.934;2023-05-07T03:41:53;12.43;;;9.87;;
18532;SDS011;9396;51.510;11.934;2023-05-07T03:44:19;11.40;;;10.20;;
18532;SDS011;9396;51.510;11.934;2023-05-07T03:46:46;12.73;;;10.40;;
18532;SDS011;9396;51.510;11.934;2023-05-07T03:49:13;13.17;;;10.77;;
18532;SDS011;9396;51.510;11.934;2023-05-07T03:51:40;13.03;;;10.67;;
18532;SDS011;9396;51.510;11.934;2023-05-07T03:54:07;13.43;;;10.60;;
18532;SDS011;9396;51.510;11.934;2023-05-07T03:56:33;12.67;;;10.47;;
18532;SDS011;9396;51.510;11.934;2023-05-07T03:59:01;14.90;;;11.10;;
18532;SDS011;9396;51.510;11.934;2023-05-07T04:01:28;13.50;;;10.97;;
18532;SDS011;9396;51.510;11.934;2023-05-07T04:03:55;12.80;;;11.07;;
18532;SDS011;9396;51.510;11.934;2023-05-07T04:06:22;13.07;;;10.47;;
18532;SDS011;9396;51.510;11.934;2023-05-07T04:08:49;11.17;;;9.07;;
18532;SDS011;9396;51.510;11.934;2023-05-07T04:11:15;14.03;;;10.47;;
18532;SDS011;9396;51.510;11.934;2023-05-07T04:13:42;12.93;;;10.70;;
18532;SDS011;9396;51.510;11.934;2023-05-07T04:16:10;14.53;;;10.40;;
18532;SDS011;9396;51.510;11.934;2023-05-07T04:18:37;13.53;;;10.97;;
18532;SDS011;9396;51.510;11.934;2023-05-07T04:21:03;15.93;;;11.13;;
18532;SDS011;9396;51.510;11.934;2023-05-07T04:23:30;14.93;;;11.27;;
18532;SDS011;9396;51.510;11.934;2023-05-07T04:25:57;13.97;;;11.10;;
18532;SDS011;9396;51.510;11.934;2023-05-07T04:28:24;15.60;;;11.30;;
18532;SDS011;9396;51.510;11.934;2023-05-07T04:30:51;14.43;;;11.60;;
18532;SDS011;9396;51.510;11.934;2023-05-07T04:33:19;16.63;;;11.63;;
18532;SDS011;9396;51.510;11.934;2023-05-07T04:35:45;14.43;;;10.87;;
18532;SDS011;9396;51.510;11.934;2023-05-07T04:38:12;14.57;;;11.63;;
18532;SDS011;9396;51.510;11.934;2023-05-07T04:40:39;16.00;;;12.07;;
18532;SDS011;9396;51.510;11.934;2023-05-07T04:43:06;16.07;;;12.57;;
18532;SDS011;9396;51.510;11.934;2023-05-07T04:45:34;16.23;;;12.27;;
18532;SDS011;9396;51.510;11.934;2023-05-07T04:48:01;15.77;;;12.20;;
18532;SDS011;9396;51.510;11.934;2023-05-07T04:50:29;17.07;;;12.23;;
18532;SDS011;9396;51.510;11.934;2023-05-07T04:52:56;16.70;;;12.87;;
18532;SDS011;9396;51.510;11.934;2023-05-07T04:55:22;17.90;;;12.93;;
18532;SDS011;9396;51.510;11.934;2023-05-07T04:57:49;17.33;;;12.53;;
18532;SDS011;9396;51.510;11.934;2023-05-07T05:00:16;16.97;;;11.97;;
18532;SDS011;9396;51.510;11.934;2023-05-07T05:02:44;17.90;;;13.70;;
18532;SDS011;9396;51.510;11.934;2023-05-07T05:05:11;16.20;;;12.47;;
18532;SDS011;9396;51.510;11.934;2023-05-07T05:07:39;19.87;;;13.40;;
18532;SDS011;9396;51.510;11.934;2023-05-07T05:10:06;17.37;;;12.43;;
18532;SDS011;9396;51.510;11.934;2023-05-07T05:12:33;15.00;;;11.80;;
18532;SDS011;9396;51.510;11.934;2023-05-07T05:14:59;15.23;;;11.60;;
18532;SDS011;9396;51.510;11.934;2023-05-07T05:17:29;16.23;;;12.03;;
18532;SDS011;9396;51.510;11.934;2023-05-07T05:19:55;15.40;;;11.27;;
18532;SDS011;9396;51.510;11.934;2023-05-07T05:22:22;15.23;;;11.80;;
18532;SDS011;9396;51.510;11.934;2023-05-07T05:24:50;15.63;;;11.87;;
18532;SDS011;9396;51.510;11.934;2023-05-07T05:27:17;11.87;;;10.33;;
18532;SDS011;9396;51.510;11.934;2023-05-07T05:29:43;14.77;;;11.00;;
18532;SDS011;9396;51.510;11.934;2023-05-07T05:32:10;12.40;;;10.93;;
18532;SDS011;9396;51.510;11.934;2023-05-07T05:34:36;13.80;;;11.07;;
18532;SDS011;9396;51.510;11.934;2023-05-07T05:37:03;14.43;;;11.33;;
18532;SDS011;9396;51.510;11.934;2023-05-07T05:39:30;12.57;;;10.63;;
18532;SDS011;9396;51.510;11.934;2023-05-07T05:41:58;13.93;;;10.93;;
18532;SDS011;9396;51.510;11.934;2023-05-07T05:44:24;13.87;;;10.93;;
18532;SDS011;9396;51.510;11.934;2023-05-07T05:46:51;11.93;;;10.57;;
18532;SDS011;9396;51.510;11.934;2023-05-07T05:49:20;15.30;;;11.10;;
18532;SDS011;9396;51.510;11.934;2023-05-07T05:51:46;13.27;;;10.37;;
18532;SDS011;9396;51.510;11.934;2023-05-07T05:54:13;13.03;;;10.63;;
18532;SDS011;9396;51.510;11.934;2023-05-07T05:56:40;14.10;;;10.70;;
18532;SDS011;9396;51.510;11.934;2023-05-07T05:59:09;11.03;;;9.33;;
18532;SDS011;9396;51.510;11.934;2023-05-07T06:01:36;13.70;;;10.10;;
18532;SDS011;9396;51.510;11.934;2023-05-07T06:04:02;12.33;;;9.83;;
18532;SDS011;9396;51.510;11.934;2023-05-07T06:06:29;11.30;;;9.83;;
18532;SDS011;9396;51.510;11.934;2023-05-07T06:08:56;11.67;;;9.30;;
18532;SDS011;9396;51.510;11.934;2023-05-07T06:11:23;9.87;;;8.83;;
18532;SDS011;9396;51.510;11.934;2023-05-07T06:13:50;11.20;;;8.83;;
18532;SDS011;9396;51.510;11.934;2023-05-07T06:16:18;11.97;;;8.70;;
18532;SDS011;9396;51.510;11.934;2023-05-07T06:18:45;10.70;;;8.30;;
18532;SDS011;9396;51.510;11.934;2023-05-07T06:21:12;11.60;;;8.30;;
18532;SDS011;9396;51.510;11.934;2023-05-07T06:23:39;10.03;;;7.97;;
18532;SDS011;9396;51.510;11.934;2023-05-07T06:26:06;10.60;;;8.73;;
18532;SDS011;9396;51.510;11.934;2023-05-07T06:28:33;9.83;;;8.27;;
18532;SDS011;9396;51.510;11.934;2023-05-07T06:31:10;9.10;;;7.90;;
18532;SDS011;9396;51.510;11.934;2023-05-07T06:33:39;8.57;;;7.53;;
18532;SDS011;9396;51.510;11.934;2023-05-07T06:36:06;10.17;;;7.47;;
18532;SDS011;9396;51.510;11.934;2023-05-07T06:38:33;11.50;;;7.13;;
18532;SDS011;9396;51.510;11.934;2023-05-07T06:40:59;8.43;;;7.47;;
18532;SDS011;9396;51.510;11.934;2023-05-07T06:43:26;8.53;;;6.83;;
18532;SDS011;9396;51.510;11.934;2023-05-07T06:45:53;7.80;;;6.47;;
18532;SDS011;9396;51.510;11.934;2023-05-07T06:48:19;8.53;;;6.80;;
18532;SDS011;9396;51.510;11.934;2023-05-07T06:50:47;8.33;;;6.60;;
18532;SDS011;9396;51.510;11.934;2023-05-07T06:53:14;10.40;;;6.13;;
18532;SDS011;9396;51.510;11.934;2023-05-07T06:55:41;6.83;;;6.07;;
18532;SDS011;9396;51.510;11.934;2023-05-07T06:58:07;6.77;;;5.70;;
18532;SDS011;9396;51.510;11.934;2023-05-07T07:00:34;5.83;;;5.03;;
18532;SDS011;9396;51.510;11.934;2023-05-07T07:03:01;6.93;;;5.53;;
18532;SDS011;9396;51.510;11.934;2023-05-07T07:05:27;7.57;;;5.83;;
18532;SDS011;9396;51.510;11.934;2023-05-07T07:07:55;6.87;;;6.17;;
18532;SDS011;9396;51.510;11.934;2023-05-07T07:10:22;6.97;;;6.27;;
18532;SDS011;9396;51.510;11.934;2023-05-07T07:12:49;6.40;;;5.80;;
18532;SDS011;9396;51.510;11.934;2023-05-07T07:15:17;7.37;;;6.03;;
18532;SDS011;9396;51.510;11.934;2023-05-07T07:17:45;7.07;;;5.90;;
18532;SDS011;9396;51.510;11.934;2023-05-07T07:20:12;8.90;;;6.30;;
18532;SDS011;9396;51.510;11.934;2023-05-07T07:22:39;8.07;;;6.57;;
18532;SDS011;9396;51.510;11.934;2023-05-07T07:25:07;9.57;;;6.73;;
18532;SDS011;9396;51.510;11.934;2023-05-07T07:27:34;11.97;;;7.30;;
18532;SDS011;9396;51.510;11.934;2023-05-07T07:30:02;8.90;;;6.97;;
18532;SDS011;9396;51.510;11.934;2023-05-07T07:32:29;8.33;;;6.53;;
18532;SDS011;9396;51.510;11.934;2023-05-07T07:34:57;7.87;;;6.57;;
18532;SDS011;9396;51.510;11.934;2023-05-07T07:37:24;7.03;;;6.33;;
18532;SDS011;9396;51.510;11.934;2023-05-07T07:39:51;8.57;;;7.40;;
18532;SDS011;9396;51.510;11.934;2023-05-07T07:42:19;9.43;;;7.93;;
18532;SDS011;9396;51.510;11.934;2023-05-07T07:44:46;8.60;;;7.70;;
18532;SDS011;9396;51.510;11.934;2023-05-07T07:47:12;9.37;;;8.23;;
18532;SDS011;9396;51.510;11.934;2023-05-07T07:49:39;10.53;;;8.20;;
18532;SDS011;9396;51.510;11.934;2023-05-07T07:52:06;9.63;;;8.63;;
18532;SDS011;9396;51.510;11.934;2023-05-07T07:54:32;11.33;;;9.17;;
18532;SDS011;9396;51.510;11.934;2023-05-07T07:56:59;10.13;;;8.63;;
18532;SDS011;9396;51.510;11.934;2023-05-07T07:59:27;12.53;;;9.10;;
18532;SDS011;9396;51.510;11.934;2023-05-07T08:01:54;9.07;;;8.00;;
18532;SDS011;9396;51.510;11.934;2023-05-07T08:04:22;10.90;;;8.77;;
18532;SDS011;9396;51.510;11.934;2023-05-07T08:06:49;10.13;;;8.30;;
18532;SDS011;9396;51.510;11.934;2023-05-07T08:09:15;10.37;;;8.30;;
18532;SDS011;9396;51.510;11.934;2023-05-07T08:11:42;10.47;;;8.33;;
18532;SDS011;9396;51.510;11.934;2023-05-07T08:14:09;9.90;;;8.47;;
18532;SDS011;9396;51.510;11.934;2023-05-07T08:16:37;8.70;;;7.30;;
18532;SDS011;9396;51.510;11.934;2023-05-07T08:19:03;10.27;;;7.60;;
18532;SDS011;9396;51.510;11.934;2023-05-07T08:21:30;8.13;;;6.77;;
18532;SDS011;9396;51.510;11.934;2023-05-07T08:23:57;8.00;;;6.67;;
18532;SDS011;9396;51.510;11.934;2023-05-07T08:26:23;7.63;;;6.73;;
18532;SDS011;9396;51.510;11.934;2023-05-07T08:28:50;8.43;;;6.10;;
18532;SDS011;9396;51.510;11.934;2023-05-07T08:31:17;7.03;;;6.03;;
18532;SDS011;9396;51.510;11.934;2023-05-07T08:33:45;7.17;;;6.07;;
18532;SDS011;9396;51.510;11.934;2023-05-07T08:36:12;7.13;;;5.60;;
18532;SDS011;9396;51.510;11.934;2023-05-07T08:38:38;7.43;;;5.97;;
18532;SDS011;9396;51.510;11.934;2023-05-07T08:41:09;7.00;;;6.30;;
18532;SDS011;9396;51.510;11.934;2023-05-07T08:43:36;6.07;;;5.47;;
18532;SDS011;9396;51.510;11.934;2023-05-07T08:46:06;6.40;;;5.80;;
18532;SDS011;9396;51.510;11.934;2023-05-07T08:48:36;7.30;;;6.20;;
18532;SDS011;9396;51.510;11.934;2023-05-07T08:51:04;6.47;;;5.87;;
18532;SDS011;9396;51.510;11.934;2023-05-07T08:53:31;7.23;;;6.20;;
18532;SDS011;9396;51.510;11.934;2023-05-07T08:55:59;6.53;;;5.70;;
18532;SDS011;9396;51.510;11.934;2023-05-07T08:58:26;6.07;;;5.47;;
18532;SDS011;9396;51.510;11.934;2023-05-07T09:00:53;4.90;;;4.40;;
18532;SDS011;9396;51.510;11.934;2023-05-07T09:03:20;4.63;;;4.13;;
18532;SDS011;9396;51.510;11.934;2023-05-07T09:05:47;4.57;;;4.17;;
18532;SDS011;9396;51.510;11.934;2023-05-07T09:08:15;4.20;;;3.80;;
18532;SDS011;9396;51.510;11.934;2023-05-07T09:10:42;5.30;;;4.73;;
18532;SDS011;9396;51.510;11.934;2023-05-07T09:13:08;5.43;;;4.93;;
18532;SDS011;9396;51.510;11.934;2023-05-07T09:15:38;7.13;;;4.47;;
18532;SDS011;9396;51.510;11.934;2023-05-07T09:18:04;5.30;;;4.80;;
18532;SDS011;9396;51.510;11.934;2023-05-07T09:20:31;5.47;;;4.90;;
18532;SDS011;9396;51.510;11.934;2023-05-07T09:22:58;7.20;;;5.67;;
18532;SDS011;9396;51.510;11.934;2023-05-07T09:25:29;8.33;;;6.00;;
18532;SDS011;9396;51.510;11.934;2023-05-07T09:27:56;6.80;;;6.10;;
18532;SDS011;9396;51.510;11.934;2023-05-07T09:30:26;9.87;;;6.30;;
18532;SDS011;9396;51.510;11.934;2023-05-07T09:32:53;7.50;;;5.90;;
18532;SDS011;9396;51.510;11.934;2023-05-07T09:35:20;6.27;;;5.67;;
18532;SDS011;9396;51.510;11.934;2023-05-07T09:37:49;7.20;;;6.23;;
18532;SDS011;9396;51.510;11.934;2023-05-07T09:40:22;7.27;;;6.27;;
18532;SDS011;9396;51.510;11.934;2023-05-07T09:42:50;7.63;;;6.70;;
18532;SDS011;9396;51.510;11.934;2023-05-07T09:45:21;6.97;;;6.10;;
18532;SDS011;9396;51.510;11.934;2023-05-07T09:47:48;6.73;;;6.03;;
18532;SDS011;9396;51.510;11.934;2023-05-07T09:50:18;8.03;;;6.80;;
18532;SDS011;9396;51.510;11.934;2023-05-07T09:52:47;9.17;;;7.47;;
18532;SDS011;9396;51.510;11.934;2023-05-07T09:55:14;9.40;;;8.40;;
18532;SDS011;9396;51.510;11.934;2023-05-07T09:57:42;10.77;;;8.50;;
18532;SDS011;9396;51.510;11.934;2023-05-07T10:00:11;10.00;;;8.30;;
18532;SDS011;9396;51.510;11.934;2023-05-07T10:02:40;10.10;;;7.73;;
18532;SDS011;9396;51.510;11.934;2023-05-07T10:05:11;8.60;;;7.37;;
18532;SDS011;9396;51.510;11.934;2023-05-07T10:07:39;9.57;;;7.87;;
18532;SDS011;9396;51.510;11.934;2023-05-07T10:10:06;9.23;;;8.27;;
18532;SDS011;9396;51.510;11.934;2023-05-07T10:12:33;12.63;;;8.63;;
18532;SDS011;9396;51.510;11.934;2023-05-07T10:15:04;9.33;;;8.37;;
18532;SDS011;9396;51.510;11.934;2023-05-07T10:17:33;11.67;;;9.23;;
18532;SDS011;9396;51.510;11.934;2023-05-07T10:20:01;11.07;;;8.40;;
18532;SDS011;9396;51.510;11.934;2023-05-07T10:22:29;9.40;;;7.37;;
18532;SDS011;9396;51.510;11.934;2023-05-07T10:24:59;8.90;;;7.37;;
18532;SDS011;9396;51.510;11.934;2023-05-07T10:27:28;8.60;;;7.50;;
18532;SDS011;9396;51.510;11.934;2023-05-07T10:29:58;8.67;;;7.40;;
18532;SDS011;9396;51.510;11.934;2023-05-07T10:32:37;9.30;;;8.30;;
18532;SDS011;9396;51.510;11.934;2023-05-07T10:35:07;9.23;;;7.63;;
18532;SDS011;9396;51.510;11.934;2023-05-07T10:37:38;8.70;;;7.43;;
18532;SDS011;9396;51.510;11.934;2023-05-07T10:40:06;9.40;;;8.40;;
18532;SDS011;9396;51.510;11.934;2023-05-07T10:42:34;8.83;;;7.70;;
18532;SDS011;9396;51.510;11.934;2023-05-07T10:45:11;10.77;;;8.23;;
18532;SDS011;9396;51.510;11.934;2023-05-07T10:50:38;13.43;;;8.53;;
18532;SDS011;9396;51.510;11.934;2023-05-07T10:53:21;10.63;;;8.77;;
18532;SDS011;9396;51.510;11.934;2023-05-07T10:55:53;10.00;;;8.97;;
18532;SDS011;9396;51.510;11.934;2023-05-07T10:58:52;11.13;;;9.23;;
18532;SDS011;9396;51.510;11.934;2023-05-07T11:04:21;11.80;;;9.63;;
18532;SDS011;9396;51.510;11.934;2023-05-07T11:09:54;11.73;;;10.03;;
18532;SDS011;9396;51.510;11.934;2023-05-07T11:12:46;10.50;;;9.17;;
18532;SDS011;9396;51.510;11.934;2023-05-07T11:15:33;9.60;;;8.40;;
18532;SDS011;9396;51.510;11.934;2023-05-07T11:18:09;10.57;;;9.00;;
18532;SDS011;9396;51.510;11.934;2023-05-07T11:20:50;11.27;;;8.50;;
18532;SDS011;9396;51.510;11.934;2023-05-07T11:26:21;11.87;;;8.30;;
18532;SDS011;9396;51.510;11.934;2023-05-07T11:28:48;8.43;;;7.37;;
18532;SDS011;9396;51.510;11.934;2023-05-07T11:31:17;9.57;;;7.80;;
18532;SDS011;9396;51.510;11.934;2023-05-07T11:33:48;9.13;;;8.23;;
18532;SDS011;9396;51.510;11.934;2023-05-07T11:36:16;8.87;;;7.97;;
18532;SDS011;9396;51.510;11.934;2023-05-07T11:38:45;9.23;;;7.27;;
18532;SDS011;9396;51.510;11.934;2023-05-07T11:41:12;14.30;;;8.00;;
18532;SDS011;9396;51.510;11.934;2023-05-07T11:43:52;8.33;;;7.53;;
18532;SDS011;9396;51.510;11.934;2023-05-07T11:46:21;8.13;;;6.87;;
18532;SDS011;9396;51.510;11.934;2023-05-07T11:48:47;7.80;;;7.00;;
18532;SDS011;9396;51.510;11.934;2023-05-07T11:51:19;10.20;;;7.00;;
18532;SDS011;9396;51.510;11.934;2023-05-07T11:53:47;8.23;;;7.33;;
18532;SDS011;9396;51.510;11.934;2023-05-07T11:56:14;8.30;;;7.50;;
18532;SDS011;9396;51.510;11.934;2023-05-07T11:58:42;8.87;;;7.97;;
18532;SDS011;9396;51.510;11.934;2023-05-07T12:01:10;9.50;;;8.50;;
18532;SDS011;9396;51.510;11.934;2023-05-07T12:03:39;10.73;;;8.20;;
18532;SDS011;9396;51.510;11.934;2023-05-07T12:06:07;11.97;;;8.93;;
18532;SDS011;9396;51.510;11.934;2023-05-07T12:08:37;11.90;;;8.67;;
18532;SDS011;9396;51.510;11.934;2023-05-07T12:11:06;9.30;;;8.40;;
18532;SDS011;9396;51.510;11.934;2023-05-07T12:13:34;9.57;;;7.63;;
18532;SDS011;9396;51.510;11.934;2023-05-07T12:16:01;7.60;;;6.80;;
18532;SDS011;9396;51.510;11.934;2023-05-07T12:18:29;7.20;;;6.50;;
18532;SDS011;9396;51.510;11.934;2023-05-07T12:20:56;8.37;;;6.67;;
18532;SDS011;9396;51.510;11.934;2023-05-07T12:23:23;6.43;;;5.20;;
18532;SDS011;9396;51.510;11.934;2023-05-07T12:25:51;5.90;;;5.23;;
18532;SDS011;9396;51.510;11.934;2023-05-07T12:28:18;5.97;;;4.70;;
18532;SDS011;9396;51.510;11.934;2023-05-07T12:30:46;5.27;;;4.57;;
18532;SDS011;9396;51.510;11.934;2023-05-07T12:33:15;5.33;;;4.80;;
18532;SDS011;9396;51.510;11.934;2023-05-07T12:35:43;5.03;;;4.53;;
18532;SDS011;9396;51.510;11.934;2023-05-07T12:38:11;5.30;;;4.70;;
18532;SDS011;9396;51.510;11.934;2023-05-07T12:40:39;5.73;;;4.37;;
18532;SDS011;9396;51.510;11.934;2023-05-07T12:43:08;7.00;;;5.50;;
18532;SDS011;9396;51.510;11.934;2023-05-07T12:45:42;7.37;;;5.80;;
18532;SDS011;9396;51.510;11.934;2023-05-07T12:48:09;7.13;;;5.77;;
18532;SDS011;9396;51.510;11.934;2023-05-07T12:50:36;6.70;;;6.03;;
18532;SDS011;9396;51.510;11.934;2023-05-07T12:53:03;7.37;;;6.00;;
18532;SDS011;9396;51.510;11.934;2023-05-07T12:55:39;9.53;;;6.17;;
18532;SDS011;9396;51.510;11.934;2023-05-07T12:58:08;7.30;;;6.60;;
18532;SDS011;9396;51.510;11.934;2023-05-07T13:00:42;7.73;;;6.03;;
18532;SDS011;9396;51.510;11.934;2023-05-07T13:03:08;8.17;;;6.63;;
18532;SDS011;9396;51.510;11.934;2023-05-07T13:05:35;7.13;;;5.90;;
18532;SDS011;9396;51.510;11.934;2023-05-07T13:08:02;7.70;;;6.73;;
18532;SDS011;9396;51.510;11.934;2023-05-07T13:10:29;9.93;;;7.07;;
18532;SDS011;9396;51.510;11.934;2023-05-07T13:12:55;9.17;;;7.17;;
18532;SDS011;9396;51.510;11.934;2023-05-07T13:15:23;8.30;;;6.73;;
18532;SDS011;9396;51.510;11.934;2023-05-07T13:17:52;8.47;;;7.60;;
18532;SDS011;9396;51.510;11.934;2023-05-07T13:20:18;9.50;;;7.57;;
18532;SDS011;9396;51.510;11.934;2023-05-07T13:22:45;8.90;;;7.23;;
18532;SDS011;9396;51.510;11.934;2023-05-07T13:25:12;8.67;;;7.60;;
18532;SDS011;9396;51.510;11.934;2023-05-07T13:27:39;7.50;;;6.30;;
18532;SDS011;9396;51.510;11.934;2023-05-07T13:30:06;6.70;;;6.00;;
18532;SDS011;9396;51.510;11.934;2023-05-07T13:32:34;5.93;;;5.37;;
18532;SDS011;9396;51.510;11.934;2023-05-07T13:35:01;6.33;;;5.23;;
18532;SDS011;9396;51.510;11.934;2023-05-07T13:37:28;6.63;;;5.30;;
18532;SDS011;9396;51.510;11.934;2023-05-07T13:39:55;6.27;;;5.67;;
18532;SDS011;9396;51.510;11.934;2023-05-07T13:42:21;6.93;;;5.90;;
18532;SDS011;9396;51.510;11.934;2023-05-07T13:44:48;8.50;;;6.07;;
18532;SDS011;9396;51.510;11.934;2023-05-07T13:47:14;6.33;;;5.50;;
18532;SDS011;9396;51.510;11.934;2023-05-07T13:49:42;5.67;;;4.87;;
18532;SDS011;9396;51.510;11.934;2023-05-07T13:52:09;6.17;;;4.77;;
18532;SDS011;9396;51.510;11.934;2023-05-07T13:54:36;4.73;;;4.20;;
18532;SDS011;9396;51.510;11.934;2023-05-07T13:57:03;5.03;;;4.50;;
18532;SDS011;9396;51.510;11.934;2023-05-07T13:59:29;8.47;;;4.97;;
18532;SDS011;9396;51.510;11.934;2023-05-07T14:01:56;5.63;;;4.73;;
18532;SDS011;9396;51.510;11.934;2023-05-07T14:04:22;5.80;;;4.03;;
18532;SDS011;9396;51.510;11.934;2023-05-07T14:06:50;5.93;;;3.57;;
18532;SDS011;9396;51.510;11.934;2023-05-07T14:09:17;5.70;;;3.90;;
18532;SDS011;9396;51.510;11.934;2023-05-07T14:11:44;4.37;;;3.67;;
18532;SDS011;9396;51.510;11.934;2023-05-07T14:14:12;3.63;;;3.33;;
18532;SDS011;9396;51.510;11.934;2023-05-07T14:16:39;4.97;;;3.33;;
18532;SDS011;9396;51.510;11.934;2023-05-07T14:19:05;4.27;;;3.27;;
18532;SDS011;9396;51.510;11.934;2023-05-07T14:21:32;3.60;;;3.30;;
18532;SDS011;9396;51.510;11.934;2023-05-07T14:24:00;4.30;;;3.90;;
18532;SDS011;9396;51.510;11.934;2023-05-07T14:26:27;4.70;;;3.77;;
18532;SDS011;9396;51.510;11.934;2023-05-07T14:28:54;4.53;;;3.80;;
18532;SDS011;9396;51.510;11.934;2023-05-07T14:31:23;4.60;;;3.73;;
18532;SDS011;9396;51.510;11.934;2023-05-07T14:33:50;5.27;;;4.03;;
18532;SDS011;9396;51.510;11.934;2023-05-07T14:36:17;4.33;;;3.50;;
18532;SDS011;9396;51.510;11.934;2023-05-07T14:38:46;8.40;;;5.40;;
18532;SDS011;9396;51.510;11.934;2023-05-07T14:41:14;5.50;;;3.80;;
18532;SDS011;9396;51.510;11.934;2023-05-07T14:43:41;6.77;;;3.80;;
18532;SDS011;9396;51.510;11.934;2023-05-07T14:46:08;4.63;;;3.10;;
18532;SDS011;9396;51.510;11.934;2023-05-07T14:48:35;4.83;;;3.20;;
18532;SDS011;9396;51.510;11.934;2023-05-07T14:51:02;8.37;;;3.27;;
18532;SDS011;9396;51.510;11.934;2023-05-07T14:53:29;5.47;;;3.40;;
18532;SDS011;9396;51.510;11.934;2023-05-07T14:55:55;3.87;;;3.40;;
18532;SDS011;9396;51.510;11.934;2023-05-07T14:58:23;3.47;;;2.90;;